Time;durP1;ratioP1;P1;durP2;ratioP2;P2;SDS_P1;SDS_P2;PMS_P1;PMS_P2;Temp;Humidity;BMP_temperature;BMP_pressure;BME280_temperature;BME280_humidity;BME280_pressure;Samples;Min_cycle;Max_cycle;Signal;HPM_P1;HPM_P2
2023/12/06 00:00:19;;;;;;;256.93;43.90;;;-0.10;99.90;;;;;;5049433;28;20239;-80
2023/12/06 00:02:46;;;;;;;123.47;36.97;;;-0.10;99.90;;;;;;5040436;28;20237;-79
2023/12/06 00:05:13;;;;;;;58.17;33.43;;;-0.10;99.90;;;;;;5046635;28;20217;-80
2023/12/06 00:07:40;;;;;;;58.43;32.73;;;-0.10;99.90;;;;;;5032022;28;20256;-79
2023/12/06 00:10:08;;;;;;;67.87;32.37;;;0.00;99.90;;;;;;5042361;28;20298;-79
2023/12/06 00:12:36;;;;;;;146.40;35.10;;;-0.10;99.90;;;;;;5042666;28;20234;-79
2023/12/06 00:15:03;;;;;;;179.53;35.93;;;-0.10;99.90;;;;;;5045374;28;20653;-79
2023/12/06 00:17:30;;;;;;;119.07;34.80;;;-0.10;99.90;;;;;;5048017;28;20910;-79
2023/12/06 00:19:57;;;;;;;71.13;31.80;;;-0.10;99.90;;;;;;5047679;28;20225;-78
2023/12/06 00:22:24;;;;;;;122.30;34.83;;;-0.10;99.90;;;;;;5043463;28;20220;-80
2023/12/06 00:24:53;;;;;;;67.27;31.93;;;-0.10;99.90;;;;;;5031360;28;20382;-79
2023/12/06 00:27:20;;;;;;;68.87;31.43;;;-0.10;99.90;;;;;;5027541;28;20779;-78
2023/12/06 00:29:48;;;;;;;195.53;37.33;;;-0.10;99.90;;;;;;5043633;28;20305;-78
2023/12/06 00:32:15;;;;;;;121.40;34.20;;;-0.10;99.90;;;;;;5043300;28;20251;-79
2023/12/06 00:34:42;;;;;;;77.70;32.50;;;-0.10;99.90;;;;;;5052369;28;20231;-78
2023/12/06 00:37:09;;;;;;;63.67;32.30;;;-0.10;99.90;;;;;;5025075;28;20216;-78
2023/12/06 00:39:36;;;;;;;79.63;33.17;;;-0.10;99.90;;;;;;5048279;28;20722;-78
2023/12/06 00:42:02;;;;;;;75.70;33.37;;;-0.10;99.90;;;;;;5025964;28;20908;-78
2023/12/06 00:44:29;;;;;;;70.97;33.07;;;-0.10;99.90;;;;;;5032813;28;20721;-78
2023/12/06 00:46:57;;;;;;;68.73;33.23;;;-0.10;99.90;;;;;;5038389;28;20249;-78
2023/12/06 00:49:24;;;;;;;86.63;35.13;;;-0.10;99.90;;;;;;5033129;28;20743;-78
2023/12/06 00:51:51;;;;;;;93.17;34.97;;;-0.10;99.90;;;;;;5042906;28;20274;-79
2023/12/06 00:54:18;;;;;;;78.73;34.47;;;0.00;99.90;;;;;;5047820;28;20723;-78
2023/12/06 00:56:45;;;;;;;62.90;32.83;;;0.00;99.90;;;;;;5050138;28;20219;-78
2023/12/06 00:59:11;;;;;;;114.60;36.40;;;0.00;99.90;;;;;;5052948;28;20227;-79
2023/12/06 01:01:38;;;;;;;72.93;34.50;;;0.00;99.90;;;;;;5035715;28;20227;-78
2023/12/06 01:04:06;;;;;;;177.03;39.17;;;0.00;99.90;;;;;;5057699;28;20281;-78
2023/12/06 01:06:33;;;;;;;102.60;36.27;;;0.00;99.90;;;;;;5023748;28;20232;-79
2023/12/06 01:09:00;;;;;;;109.60;35.90;;;0.00;99.90;;;;;;5021694;28;20239;-78
2023/12/06 01:11:26;;;;;;;188.50;40.40;;;0.00;99.90;;;;;;5053446;28;20270;-79
2023/12/06 01:13:53;;;;;;;74.70;35.63;;;0.10;99.90;;;;;;5042025;28;20264;-79
2023/12/06 01:16:20;;;;;;;74.33;35.37;;;0.10;99.90;;;;;;5042773;28;20715;-79
2023/12/06 01:18:47;;;;;;;65.90;36.40;;;0.10;99.90;;;;;;5040011;28;20709;-79
2023/12/06 01:21:15;;;;;;;64.33;33.60;;;0.10;99.90;;;;;;5033187;28;20216;-79
2023/12/06 01:23:42;;;;;;;85.90;35.90;;;0.10;99.90;;;;;;5047650;28;20227;-79
2023/12/06 01:26:09;;;;;;;88.93;36.93;;;0.00;99.90;;;;;;5027970;28;20216;-79
2023/12/06 01:28:36;;;;;;;63.17;34.53;;;0.10;99.90;;;;;;5026295;28;20868;-79
2023/12/06 01:31:03;;;;;;;121.40;36.87;;;0.10;99.90;;;;;;5042287;28;20251;-80
2023/12/06 01:33:29;;;;;;;131.43;38.00;;;0.00;99.90;;;;;;5042577;28;20229;-79
2023/12/06 01:35:56;;;;;;;118.03;38.17;;;0.10;99.90;;;;;;5034422;28;20634;-79
2023/12/06 01:38:24;;;;;;;79.07;35.77;;;0.10;99.90;;;;;;5029159;28;20251;-79
2023/12/06 01:40:51;;;;;;;65.67;35.93;;;0.10;99.90;;;;;;5036867;28;20235;-79
2023/12/06 01:43:18;;;;;;;80.00;34.43;;;0.10;99.90;;;;;;5032714;28;20320;-79
2023/12/06 01:45:44;;;;;;;389.97;54.47;;;0.10;99.90;;;;;;5051451;28;20890;-79
2023/12/06 01:48:12;;;;;;;169.33;37.33;;;0.10;99.90;;;;;;5031058;28;20249;-79
2023/12/06 01:50:40;;;;;;;66.77;35.67;;;0.10;99.90;;;;;;5027769;28;20256;-79
2023/12/06 01:53:08;;;;;;;251.77;43.67;;;0.10;99.90;;;;;;5041418;28;20221;-79
2023/12/06 01:55:36;;;;;;;108.53;39.17;;;0.10;99.90;;;;;;5040818;28;20239;-80
2023/12/06 01:58:03;;;;;;;76.10;35.80;;;0.10;99.90;;;;;;5047366;28;20237;-79
2023/12/06 02:00:30;;;;;;;72.47;35.23;;;0.10;99.90;;;;;;5028773;28;20341;-80
2023/12/06 02:02:58;;;;;;;59.80;34.10;;;0.10;99.90;;;;;;5029029;28;20297;-79
2023/12/06 02:05:27;;;;;;;127.20;37.10;;;0.10;99.90;;;;;;5038426;28;20250;-79
2023/12/06 02:07:55;;;;;;;67.03;33.50;;;0.10;99.90;;;;;;5024284;28;20881;-80
2023/12/06 02:10:21;;;;;;;70.97;34.83;;;0.10;99.90;;;;;;5035611;28;20290;-80
2023/12/06 02:12:50;;;;;;;69.27;34.77;;;0.10;99.90;;;;;;5045057;28;20228;-81
2023/12/06 02:15:18;;;;;;;63.83;34.70;;;0.10;99.90;;;;;;5038933;28;20232;-80
2023/12/06 02:17:45;;;;;;;64.97;35.27;;;0.10;99.90;;;;;;5030203;28;20233;-80
2023/12/06 02:20:13;;;;;;;77.50;36.13;;;0.10;99.90;;;;;;5029425;28;20617;-80
2023/12/06 02:22:40;;;;;;;70.37;34.30;;;0.10;99.90;;;;;;5043743;28;20232;-80
2023/12/06 02:25:13;;;;;;;62.77;35.83;;;0.10;99.90;;;;;;5031753;28;20225;-80
2023/12/06 02:27:42;;;;;;;115.60;38.20;;;0.10;99.90;;;;;;5035418;28;20229;-80
2023/12/06 02:30:10;;;;;;;91.33;36.23;;;0.10;99.90;;;;;;5057379;28;20239;-79
2023/12/06 02:32:37;;;;;;;62.77;35.17;;;0.10;99.90;;;;;;5035255;28;20217;-80
2023/12/06 02:35:09;;;;;;;147.53;38.63;;;0.20;99.90;;;;;;5030125;28;20314;-80
2023/12/06 02:37:36;;;;;;;62.20;33.67;;;0.10;99.90;;;;;;5050848;28;20309;-80
2023/12/06 02:40:06;;;;;;;83.17;33.60;;;0.20;99.90;;;;;;5047163;28;20848;-80
2023/12/06 02:42:34;;;;;;;64.93;33.63;;;0.20;99.90;;;;;;5044435;28;20304;-79
2023/12/06 02:45:01;;;;;;;68.37;33.03;;;0.20;99.90;;;;;;5041560;28;20548;-79
2023/12/06 02:47:28;;;;;;;73.93;34.37;;;0.20;99.90;;;;;;5046031;28;20922;-79
2023/12/06 02:49:55;;;;;;;64.63;34.03;;;0.10;99.90;;;;;;5033532;28;20761;-80
2023/12/06 02:52:22;;;;;;;72.70;33.60;;;0.10;99.90;;;;;;5037310;28;20228;-80
2023/12/06 02:54:48;;;;;;;71.23;34.43;;;0.20;99.90;;;;;;5052441;28;20226;-80
2023/12/06 02:57:15;;;;;;;63.30;34.87;;;0.10;99.90;;;;;;5033093;28;20631;-80
2023/12/06 02:59:43;;;;;;;71.50;34.23;;;0.10;99.90;;;;;;5033603;28;20249;-80
2023/12/06 03:02:10;;;;;;;65.70;34.10;;;0.10;99.90;;;;;;5043500;28;20289;-79
2023/12/06 03:04:37;;;;;;;69.00;34.77;;;0.10;99.90;;;;;;5028169;28;20372;-80
2023/12/06 03:07:04;;;;;;;85.43;36.77;;;0.10;99.90;;;;;;5038125;28;20254;-80
2023/12/06 03:09:31;;;;;;;67.00;35.57;;;0.10;99.90;;;;;;5050563;28;20227;-80
2023/12/06 03:11:58;;;;;;;73.67;36.03;;;0.10;99.90;;;;;;5036646;28;20252;-80
2023/12/06 03:14:25;;;;;;;63.03;34.50;;;0.10;99.90;;;;;;5030843;28;20343;-81
2023/12/06 03:16:53;;;;;;;70.67;35.10;;;0.10;99.90;;;;;;5055985;28;20221;-80
2023/12/06 03:19:20;;;;;;;69.93;36.13;;;0.10;99.90;;;;;;5038266;28;20227;-80
2023/12/06 03:21:47;;;;;;;77.93;36.57;;;0.10;99.90;;;;;;5031308;28;20218;-81
2023/12/06 03:24:14;;;;;;;92.33;36.43;;;0.10;99.90;;;;;;5041551;28;20228;-80
2023/12/06 03:26:41;;;;;;;71.60;37.80;;;0.10;99.90;;;;;;5028583;28;20593;-80
2023/12/06 03:29:08;;;;;;;89.60;37.67;;;0.20;99.90;;;;;;5037551;28;20220;-80
2023/12/06 03:31:35;;;;;;;159.33;40.17;;;0.10;99.90;;;;;;5050375;28;20220;-80
2023/12/06 03:34:03;;;;;;;94.33;38.17;;;0.20;99.90;;;;;;5036712;28;20229;-80
2023/12/06 03:36:30;;;;;;;85.07;38.77;;;0.20;99.90;;;;;;5032856;28;20238;-80
2023/12/06 03:38:57;;;;;;;84.67;36.73;;;0.30;99.90;;;;;;5054619;28;20247;-81
2023/12/06 03:41:23;;;;;;;74.03;40.53;;;0.20;99.90;;;;;;5038566;28;20275;-80
2023/12/06 03:43:50;;;;;;;66.20;36.23;;;0.20;99.90;;;;;;5032495;28;20232;-80
2023/12/06 03:46:17;;;;;;;70.37;38.67;;;0.20;99.90;;;;;;5033119;28;20216;-80
2023/12/06 03:48:44;;;;;;;65.93;35.07;;;0.20;99.90;;;;;;5036864;28;20227;-80
2023/12/06 03:51:13;;;;;;;95.90;38.03;;;0.20;99.90;;;;;;5042715;28;20219;-79
2023/12/06 03:53:40;;;;;;;78.67;37.27;;;0.20;99.90;;;;;;5027045;28;20225;-80
2023/12/06 03:56:08;;;;;;;66.50;36.97;;;0.20;99.90;;;;;;5029571;28;20224;-81
2023/12/06 03:58:37;;;;;;;104.60;38.77;;;0.20;99.90;;;;;;5051151;28;20225;-81
2023/12/06 04:01:05;;;;;;;74.00;37.27;;;0.20;99.90;;;;;;5033468;28;20224;-80
2023/12/06 04:03:32;;;;;;;69.83;38.57;;;0.20;99.90;;;;;;5050292;28;20230;-80
2023/12/06 04:05:59;;;;;;;113.67;38.13;;;0.20;99.90;;;;;;5031334;28;20224;-80
2023/12/06 04:08:27;;;;;;;78.53;37.20;;;0.20;99.90;;;;;;5028336;28;20628;-80
2023/12/06 04:10:53;;;;;;;75.30;37.63;;;0.20;99.90;;;;;;5037332;28;20273;-81
2023/12/06 04:13:20;;;;;;;66.57;35.33;;;0.20;99.90;;;;;;5048927;28;20293;-80
2023/12/06 04:15:47;;;;;;;97.37;39.17;;;0.20;99.90;;;;;;5049208;28;20664;-80
2023/12/06 04:18:14;;;;;;;85.23;37.13;;;0.20;99.90;;;;;;5047041;28;20297;-80
2023/12/06 04:20:40;;;;;;;71.00;37.87;;;0.20;99.90;;;;;;5046387;28;20231;-80
2023/12/06 04:23:07;;;;;;;77.20;37.33;;;0.20;99.90;;;;;;5049458;28;20255;-79
2023/12/06 04:25:35;;;;;;;114.17;40.00;;;0.20;99.90;;;;;;5022394;28;20793;-79
2023/12/06 04:28:02;;;;;;;76.47;38.83;;;0.20;99.90;;;;;;5051129;28;20229;-80
2023/12/06 04:30:29;;;;;;;81.53;37.63;;;0.20;99.90;;;;;;5031519;28;20234;-80
2023/12/06 04:32:56;;;;;;;67.90;36.70;;;0.20;99.90;;;;;;5039318;28;20244;-80
2023/12/06 04:35:23;;;;;;;81.70;39.57;;;0.20;99.90;;;;;;5032418;28;20235;-79
2023/12/06 04:37:50;;;;;;;117.83;39.93;;;0.20;99.90;;;;;;5049081;28;20255;-79
2023/12/06 04:40:17;;;;;;;96.77;39.57;;;0.10;99.90;;;;;;5031772;28;20249;-80
2023/12/06 04:42:45;;;;;;;79.40;39.13;;;0.20;99.90;;;;;;5048603;28;20221;-80
2023/12/06 04:45:12;;;;;;;103.27;39.30;;;0.20;99.90;;;;;;5033915;28;20215;-80
2023/12/06 04:47:39;;;;;;;76.00;39.07;;;0.20;99.90;;;;;;5034196;28;20256;-80
2023/12/06 04:50:08;;;;;;;81.87;39.43;;;0.20;99.90;;;;;;5037937;28;20645;-80
2023/12/06 04:52:36;;;;;;;139.77;43.90;;;0.20;99.90;;;;;;5037377;28;20285;-81
2023/12/06 04:55:04;;;;;;;80.97;40.17;;;0.20;99.90;;;;;;5055403;28;20269;-81
2023/12/06 04:57:31;;;;;;;81.07;40.33;;;0.20;99.90;;;;;;5054804;28;20229;-81
2023/12/06 05:00:00;;;;;;;94.57;41.37;;;0.30;99.90;;;;;;5030311;28;20220;-80
2023/12/06 05:02:26;;;;;;;85.27;40.27;;;0.20;99.90;;;;;;5027599;28;20231;-79
2023/12/06 05:04:53;;;;;;;80.37;40.90;;;0.20;99.90;;;;;;5043286;28;20216;-80
2023/12/06 05:07:20;;;;;;;151.07;44.13;;;0.20;99.90;;;;;;5044078;28;20231;-79
2023/12/06 05:09:48;;;;;;;90.87;43.87;;;0.20;99.90;;;;;;5052315;28;20254;-79
2023/12/06 05:12:15;;;;;;;85.60;42.97;;;0.20;99.90;;;;;;5044916;28;20215;-80
2023/12/06 05:14:42;;;;;;;92.63;41.43;;;0.20;99.90;;;;;;5043570;28;20721;-80
2023/12/06 05:17:11;;;;;;;80.23;41.00;;;0.20;99.90;;;;;;5045012;28;20222;-81
2023/12/06 05:19:38;;;;;;;232.33;48.03;;;0.20;99.90;;;;;;5050616;28;20666;-80
2023/12/06 05:22:06;;;;;;;89.07;42.37;;;0.20;99.90;;;;;;5048227;28;20216;-81
2023/12/06 05:24:32;;;;;;;176.47;47.33;;;0.20;99.90;;;;;;5046286;28;20251;-80
2023/12/06 05:27:00;;;;;;;214.87;49.07;;;0.30;99.90;;;;;;5047739;28;20234;-81
2023/12/06 05:29:26;;;;;;;214.90;49.47;;;0.30;99.90;;;;;;5043547;28;20332;-81
2023/12/06 05:31:53;;;;;;;189.37;46.10;;;0.20;99.90;;;;;;5033837;28;20248;-81
2023/12/06 05:34:21;;;;;;;151.17;45.10;;;0.20;99.90;;;;;;5047938;28;20291;-81
2023/12/06 05:36:48;;;;;;;220.23;50.07;;;0.30;99.90;;;;;;5044142;28;20300;-81
2023/12/06 05:39:15;;;;;;;240.93;49.23;;;0.30;99.90;;;;;;5048136;28;20251;-82
2023/12/06 05:41:42;;;;;;;82.97;41.77;;;0.30;99.90;;;;;;5029757;28;20887;-81
2023/12/06 05:44:09;;;;;;;123.50;44.30;;;0.30;99.90;;;;;;5044539;28;20219;-80
2023/12/06 05:46:35;;;;;;;303.33;55.70;;;0.30;99.90;;;;;;5052330;28;20215;-81
2023/12/06 05:49:02;;;;;;;165.80;46.77;;;0.30;99.90;;;;;;5045929;28;20951;-81
2023/12/06 05:51:30;;;;;;;86.93;41.33;;;0.40;99.90;;;;;;5049238;28;20309;-81
2023/12/06 05:53:57;;;;;;;317.83;53.93;;;0.30;99.90;;;;;;5043715;28;20305;-81
2023/12/06 05:56:23;;;;;;;144.17;46.97;;;0.40;99.90;;;;;;5049170;28;20415;-80
2023/12/06 05:58:50;;;;;;;106.13;44.37;;;0.40;99.90;;;;;;5043640;28;20330;-81
2023/12/06 06:01:18;;;;;;;100.20;45.80;;;0.40;99.90;;;;;;5033770;28;20277;-80
2023/12/06 06:03:45;;;;;;;98.83;45.33;;;0.40;99.90;;;;;;5049208;28;20227;-81
2023/12/06 06:06:12;;;;;;;88.07;44.50;;;0.40;99.90;;;;;;5049347;28;20232;-80
2023/12/06 06:08:40;;;;;;;145.23;45.13;;;0.40;99.90;;;;;;5044949;28;20220;-81
2023/12/06 06:11:08;;;;;;;91.77;42.73;;;0.50;99.90;;;;;;5047874;28;20301;-82
2023/12/06 06:13:34;;;;;;;148.57;47.47;;;0.40;99.90;;;;;;5038493;28;20700;-82
2023/12/06 06:16:01;;;;;;;128.17;46.00;;;0.40;99.90;;;;;;5050447;28;20287;-82
2023/12/06 06:18:28;;;;;;;133.67;46.40;;;0.40;99.90;;;;;;5038017;28;20253;-83
2023/12/06 06:20:55;;;;;;;133.13;48.23;;;0.40;99.90;;;;;;5050145;28;20219;-82
2023/12/06 06:23:22;;;;;;;114.50;47.50;;;0.40;99.90;;;;;;5050178;28;20228;-81
2023/12/06 06:25:52;;;;;;;95.33;44.93;;;0.40;99.90;;;;;;5035187;28;20232;-81
2023/12/06 06:28:19;;;;;;;101.20;45.97;;;0.40;99.90;;;;;;5047613;28;20226;-81
2023/12/06 06:30:46;;;;;;;157.80;50.63;;;0.40;99.90;;;;;;5054389;28;20256;-79
2023/12/06 06:33:13;;;;;;;105.07;44.50;;;0.40;99.90;;;;;;5050400;28;20279;-83
2023/12/06 06:35:39;;;;;;;100.00;45.13;;;0.40;99.90;;;;;;5035134;28;20230;-84
2023/12/06 06:38:06;;;;;;;125.37;48.30;;;0.40;99.90;;;;;;5031763;28;20225;-81
2023/12/06 06:40:33;;;;;;;106.40;47.97;;;0.40;99.90;;;;;;5039455;28;20334;-81
2023/12/06 06:43:02;;;;;;;173.13;49.57;;;0.40;99.90;;;;;;5035555;28;20234;-81
2023/12/06 06:45:28;;;;;;;117.17;48.93;;;0.40;99.90;;;;;;5035569;28;20282;-81
2023/12/06 06:47:55;;;;;;;102.03;47.80;;;0.40;99.90;;;;;;5033243;28;20249;-81
2023/12/06 06:50:22;;;;;;;102.50;45.97;;;0.40;99.90;;;;;;5054169;28;20236;-81
2023/12/06 06:52:49;;;;;;;107.63;47.17;;;0.40;99.90;;;;;;5049821;28;20645;-82
2023/12/06 06:55:16;;;;;;;126.50;47.03;;;0.40;99.90;;;;;;5048660;28;20225;-81
2023/12/06 06:57:42;;;;;;;159.07;49.57;;;0.40;99.90;;;;;;5049583;28;20227;-81
2023/12/06 07:00:13;;;;;;;102.70;47.53;;;0.40;99.90;;;;;;5028227;28;20899;-81
2023/12/06 07:02:39;;;;;;;112.07;48.13;;;0.40;99.90;;;;;;5029028;28;20813;-81
2023/12/06 07:05:07;;;;;;;101.67;46.50;;;0.30;99.90;;;;;;5033711;28;20988;-81
2023/12/06 07:07:34;;;;;;;105.77;46.87;;;0.40;99.90;;;;;;5052452;28;20278;-81
2023/12/06 07:10:04;;;;;;;133.30;48.03;;;0.30;99.90;;;;;;5032211;28;20282;-81
2023/12/06 07:12:32;;;;;;;133.57;50.70;;;0.30;99.90;;;;;;5033686;28;20225;-81
2023/12/06 07:14:58;;;;;;;121.50;50.00;;;0.30;99.90;;;;;;5047773;28;20230;-81
2023/12/06 07:17:26;;;;;;;142.97;50.40;;;0.30;99.90;;;;;;5051177;28;20315;-81
2023/12/06 07:19:54;;;;;;;140.77;52.27;;;0.30;99.90;;;;;;5050326;28;20217;-81
2023/12/06 07:22:21;;;;;;;119.63;49.27;;;0.30;99.90;;;;;;5030916;28;20846;-81
2023/12/06 07:24:47;;;;;;;273.57;56.30;;;0.30;99.90;;;;;;5055716;28;20231;-81
2023/12/06 07:27:14;;;;;;;113.90;50.53;;;0.30;99.90;;;;;;5027400;28;20257;-81
2023/12/06 07:29:42;;;;;;;121.53;51.60;;;0.30;99.90;;;;;;5044716;28;20254;-81
2023/12/06 07:32:09;;;;;;;111.50;49.13;;;0.30;99.90;;;;;;5052050;28;20262;-81
2023/12/06 07:34:37;;;;;;;147.63;49.17;;;0.30;99.90;;;;;;5056104;28;20298;-81
2023/12/06 07:37:04;;;;;;;121.10;49.57;;;0.30;99.90;;;;;;5044063;28;20220;-81
2023/12/06 07:39:31;;;;;;;112.23;49.50;;;0.30;99.90;;;;;;5035750;28;20246;-81
2023/12/06 07:41:57;;;;;;;137.93;50.20;;;0.30;99.90;;;;;;5030115;28;20237;-81
2023/12/06 07:44:24;;;;;;;148.20;50.87;;;0.30;99.90;;;;;;5035101;28;20253;-80
2023/12/06 07:46:51;;;;;;;118.07;50.10;;;0.30;99.90;;;;;;5055633;28;20266;-80
2023/12/06 07:49:18;;;;;;;271.03;58.33;;;0.30;99.90;;;;;;5052884;28;20341;-81
2023/12/06 07:51:46;;;;;;;111.33;48.30;;;0.30;99.90;;;;;;5056399;28;20244;-81
2023/12/06 07:54:14;;;;;;;139.03;49.60;;;0.30;99.90;;;;;;5036675;28;20240;-81
2023/12/06 07:56:41;;;;;;;113.60;48.67;;;0.30;99.90;;;;;;5033119;28;20246;-81
2023/12/06 07:59:08;;;;;;;111.70;49.77;;;0.30;99.90;;;;;;5037259;28;20228;-80
2023/12/06 08:01:36;;;;;;;127.10;51.50;;;0.30;99.90;;;;;;5040670;28;20706;-80
2023/12/06 08:04:03;;;;;;;592.00;79.73;;;0.30;99.90;;;;;;5031529;28;20229;-81
2023/12/06 08:06:30;;;;;;;132.60;51.67;;;0.30;99.90;;;;;;5032852;28;20248;-81
2023/12/06 08:08:58;;;;;;;141.30;50.53;;;0.30;99.90;;;;;;5037587;28;20227;-81
2023/12/06 08:11:25;;;;;;;118.97;52.40;;;0.30;99.90;;;;;;5048469;28;20627;-81
2023/12/06 08:13:52;;;;;;;123.37;50.87;;;0.40;99.90;;;;;;5037747;28;20716;-81
2023/12/06 08:16:19;;;;;;;128.97;48.53;;;0.40;99.90;;;;;;5048788;28;20233;-81
2023/12/06 08:18:47;;;;;;;117.00;49.87;;;0.30;99.90;;;;;;5054792;28;20234;-81
2023/12/06 08:21:14;;;;;;;164.53;53.57;;;0.30;99.90;;;;;;5029641;28;20233;-81
2023/12/06 08:23:40;;;;;;;120.80;52.70;;;0.30;99.90;;;;;;5052352;28;20285;-81
2023/12/06 08:26:10;;;;;;;123.17;49.37;;;0.20;99.90;;;;;;5035146;28;20338;-81
2023/12/06 08:28:37;;;;;;;184.57;52.60;;;0.20;99.90;;;;;;5054126;28;20222;-80
2023/12/06 08:31:04;;;;;;;111.73;49.30;;;0.30;99.90;;;;;;5049524;28;20247;-80
2023/12/06 08:33:31;;;;;;;116.20;50.80;;;0.30;99.90;;;;;;5030112;28;20254;-81
2023/12/06 08:35:59;;;;;;;109.83;50.87;;;0.30;99.90;;;;;;5038822;28;20225;-81
2023/12/06 08:38:25;;;;;;;103.40;48.43;;;0.30;99.90;;;;;;5048710;28;20225;-82
2023/12/06 08:40:52;;;;;;;120.93;50.33;;;0.30;99.90;;;;;;5052779;28;20482;-81
2023/12/06 08:43:20;;;;;;;154.73;49.83;;;0.30;99.90;;;;;;5049104;28;20238;-82
2023/12/06 08:45:47;;;;;;;113.33;50.23;;;0.30;99.90;;;;;;5034450;28;20683;-81
2023/12/06 08:48:14;;;;;;;111.13;49.47;;;0.40;99.90;;;;;;5034188;28;20223;-82
2023/12/06 08:50:41;;;;;;;263.63;59.30;;;0.40;99.90;;;;;;5040076;28;20247;-81
2023/12/06 08:53:08;;;;;;;103.50;47.67;;;0.40;99.90;;;;;;5033967;28;20236;-81
2023/12/06 08:55:35;;;;;;;115.27;50.73;;;0.40;99.90;;;;;;5052326;28;20483;-82
2023/12/06 08:58:04;;;;;;;115.83;51.73;;;0.40;99.90;;;;;;5047009;28;20764;-82
2023/12/06 09:00:33;;;;;;;107.40;49.47;;;0.50;99.90;;;;;;5055749;28;20224;-82
2023/12/06 09:03:01;;;;;;;120.67;50.23;;;0.50;99.90;;;;;;5034955;28;20281;-82
2023/12/06 09:05:29;;;;;;;129.37;50.97;;;0.50;99.90;;;;;;5021156;28;20614;-83
2023/12/06 09:07:57;;;;;;;131.93;48.93;;;0.50;99.90;;;;;;5042167;28;20224;-83
2023/12/06 09:10:24;;;;;;;109.50;51.27;;;0.50;99.90;;;;;;5044907;28;20232;-83
2023/12/06 09:12:52;;;;;;;111.67;49.13;;;0.60;99.90;;;;;;5031499;28;20373;-83
2023/12/06 09:15:18;;;;;;;113.87;50.23;;;0.60;99.90;;;;;;5034184;28;20278;-83
2023/12/06 09:17:48;;;;;;;110.50;49.00;;;0.60;99.90;;;;;;5041055;28;20232;-83
2023/12/06 09:20:15;;;;;;;108.10;49.27;;;0.70;99.90;;;;;;5033103;28;20231;-83
2023/12/06 09:22:42;;;;;;;107.00;50.67;;;0.70;99.90;;;;;;5026988;28;20220;-83
2023/12/06 09:25:09;;;;;;;108.23;50.20;;;0.70;99.90;;;;;;5027290;28;20744;-83
2023/12/06 09:27:36;;;;;;;111.03;50.23;;;0.80;99.90;;;;;;5036156;28;20262;-83
2023/12/06 09:30:04;;;;;;;141.97;51.77;;;0.70;99.90;;;;;;5049467;28;20223;-83
2023/12/06 09:32:30;;;;;;;114.93;49.53;;;0.70;99.90;;;;;;5058197;28;20279;-83
2023/12/06 09:34:58;;;;;;;131.53;50.17;;;0.80;99.90;;;;;;5054946;28;20261;-83
2023/12/06 09:37:25;;;;;;;106.47;49.37;;;0.80;99.90;;;;;;5038748;28;20239;-82
2023/12/06 09:39:52;;;;;;;121.80;51.03;;;0.80;99.90;;;;;;5040861;28;20251;-83
2023/12/06 09:42:20;;;;;;;108.00;49.87;;;0.80;99.90;;;;;;5051248;28;20286;-83
2023/12/06 09:44:47;;;;;;;102.27;49.40;;;0.80;99.90;;;;;;5051686;28;20286;-83
2023/12/06 09:47:14;;;;;;;141.80;51.37;;;0.90;99.90;;;;;;5053193;28;20226;-84
2023/12/06 09:49:41;;;;;;;111.83;50.87;;;0.90;99.90;;;;;;5038020;28;20738;-83
2023/12/06 09:52:14;;;;;;;134.47;51.53;;;0.80;99.90;;;;;;5057756;28;20261;-83
2023/12/06 09:54:42;;;;;;;114.07;49.87;;;0.90;99.90;;;;;;5044178;28;20312;-83
2023/12/06 09:57:10;;;;;;;106.60;49.13;;;0.90;99.90;;;;;;5027250;28;20212;-84
2023/12/06 09:59:36;;;;;;;107.17;49.73;;;0.90;99.90;;;;;;5038092;28;20221;-84
2023/12/06 10:02:04;;;;;;;111.63;51.07;;;0.90;99.90;;;;;;5039786;28;20289;-83
2023/12/06 10:04:31;;;;;;;107.33;50.67;;;0.90;99.90;;;;;;5034944;28;20248;-83
2023/12/06 10:06:58;;;;;;;121.23;51.50;;;0.90;99.90;;;;;;5040862;28;20227;-84
2023/12/06 10:09:26;;;;;;;109.67;49.90;;;0.90;99.90;;;;;;5054484;28;20223;-83
2023/12/06 10:11:53;;;;;;;110.60;50.23;;;0.90;99.90;;;;;;5037124;28;20247;-83
2023/12/06 10:14:21;;;;;;;116.70;50.87;;;0.90;99.90;;;;;;5030004;28;20267;-84
2023/12/06 10:16:48;;;;;;;113.30;50.30;;;0.90;99.90;;;;;;5046308;28;20229;-83
2023/12/06 10:19:19;;;;;;;113.80;50.70;;;0.90;99.90;;;;;;5056761;28;20942;-84
2023/12/06 10:21:47;;;;;;;116.27;50.47;;;0.90;99.90;;;;;;5051173;28;20228;-83
2023/12/06 10:24:14;;;;;;;153.57;53.07;;;0.90;99.90;;;;;;5056168;28;20316;-84
2023/12/06 10:26:42;;;;;;;115.90;52.13;;;0.90;99.90;;;;;;5047877;28;20657;-84
2023/12/06 10:29:09;;;;;;;106.67;50.47;;;0.90;99.90;;;;;;5031726;28;21129;-84
2023/12/06 10:31:42;;;;;;;107.77;49.53;;;0.90;99.90;;;;;;5038419;28;20282;-85
2023/12/06 10:34:09;;;;;;;108.13;50.43;;;0.90;99.90;;;;;;5035405;28;20235;-83
2023/12/06 10:36:36;;;;;;;117.63;50.93;;;0.90;99.90;;;;;;5043101;28;20228;-84
2023/12/06 10:39:08;;;;;;;113.40;51.27;;;0.90;99.90;;;;;;5044299;28;20254;-84
2023/12/06 10:41:36;;;;;;;123.10;51.17;;;0.90;99.90;;;;;;5035231;28;20224;-83
2023/12/06 10:44:08;;;;;;;118.90;52.07;;;0.90;99.90;;;;;;5051788;28;20221;-84
2023/12/06 10:46:37;;;;;;;133.00;51.87;;;1.00;99.90;;;;;;5036469;28;20257;-85
2023/12/06 10:49:04;;;;;;;108.97;49.03;;;1.00;99.90;;;;;;5035107;28;20746;-86
2023/12/06 10:51:31;;;;;;;119.97;50.87;;;0.90;99.90;;;;;;5057395;28;20248;-83
2023/12/06 10:54:00;;;;;;;123.87;54.60;;;1.00;99.90;;;;;;5047878;28;20709;-85
2023/12/06 10:56:28;;;;;;;235.00;58.00;;;1.00;99.90;;;;;;5044771;28;20286;-84
2023/12/06 10:58:56;;;;;;;181.37;54.37;;;1.00;99.90;;;;;;5055320;28;20276;-84
2023/12/06 11:01:25;;;;;;;170.20;53.60;;;1.00;99.90;;;;;;5042556;28;20768;-84
2023/12/06 11:03:52;;;;;;;124.73;50.83;;;1.00;99.90;;;;;;5026172;28;20229;-83
2023/12/06 11:06:26;;;;;;;118.07;50.53;;;1.00;99.90;;;;;;5029763;28;20231;-85
2023/12/06 11:09:04;;;;;;;121.37;51.53;;;1.00;99.90;;;;;;5046503;28;20244;-84
2023/12/06 11:11:45;;;;;;;125.80;50.83;;;1.00;99.90;;;;;;5052419;28;20284;-84
2023/12/06 11:14:32;;;;;;;118.80;52.23;;;1.00;99.90;;;;;;5054452;28;20226;-85
2023/12/06 11:17:24;;;;;;;117.57;50.03;;;1.10;99.90;;;;;;5052356;28;20323;-84
2023/12/06 11:19:51;;;;;;;125.93;50.37;;;1.00;99.90;;;;;;5037953;28;20687;-85
2023/12/06 11:22:18;;;;;;;126.83;51.07;;;1.10;99.90;;;;;;5019316;28;20691;-84
2023/12/06 11:24:46;;;;;;;123.43;52.07;;;1.10;99.90;;;;;;5041534;28;20281;-84
2023/12/06 11:27:13;;;;;;;122.20;52.07;;;1.10;99.90;;;;;;5050893;28;20255;-85
2023/12/06 11:29:41;;;;;;;134.53;50.07;;;1.10;99.90;;;;;;5035899;28;20281;-84
2023/12/06 11:32:12;;;;;;;161.53;50.90;;;1.10;99.90;;;;;;5048722;28;20232;-86
2023/12/06 11:34:41;;;;;;;119.47;51.10;;;1.10;99.90;;;;;;5046936;28;20220;-85
2023/12/06 11:37:16;;;;;;;177.83;53.80;;;1.10;99.90;;;;;;5051703;28;20220;-84
2023/12/06 11:39:47;;;;;;;254.83;57.40;;;1.10;99.90;;;;;;5024346;28;20235;-84
2023/12/06 11:42:18;;;;;;;124.77;49.87;;;1.10;99.90;;;;;;5032289;28;20261;-86
2023/12/06 11:44:52;;;;;;;121.50;48.33;;;1.10;99.90;;;;;;5047956;28;20220;-85
2023/12/06 11:47:24;;;;;;;122.00;51.47;;;1.10;99.90;;;;;;5049804;28;20244;-85
2023/12/06 11:49:54;;;;;;;118.70;52.07;;;1.10;99.90;;;;;;5028594;28;20223;-84
2023/12/06 11:52:21;;;;;;;140.10;52.33;;;1.10;99.90;;;;;;5031267;28;20271;-86
2023/12/06 11:54:50;;;;;;;153.10;50.57;;;1.10;99.90;;;;;;5036631;28;20219;-85
2023/12/06 11:57:17;;;;;;;166.93;50.33;;;1.10;99.90;;;;;;5029233;28;20230;-84
2023/12/06 11:59:44;;;;;;;131.50;48.13;;;1.10;99.90;;;;;;5047911;28;20711;-85
2023/12/06 12:02:12;;;;;;;175.43;48.63;;;1.10;99.90;;;;;;5029947;28;20728;-85
2023/12/06 12:04:39;;;;;;;123.97;48.73;;;1.10;99.90;;;;;;5033965;28;20240;-86
2023/12/06 12:07:09;;;;;;;117.47;47.50;;;1.10;99.90;;;;;;5054538;28;20226;-84
2023/12/06 12:09:36;;;;;;;120.03;48.77;;;1.10;99.90;;;;;;5033524;28;20250;-85
2023/12/06 12:12:03;;;;;;;115.70;49.43;;;1.20;99.90;;;;;;5047510;28;20224;-84
2023/12/06 12:14:33;;;;;;;100.90;45.17;;;1.10;99.90;;;;;;5035686;28;20630;-85
2023/12/06 12:17:02;;;;;;;115.37;48.10;;;1.10;99.90;;;;;;5036343;28;20251;-84
2023/12/06 12:19:29;;;;;;;104.43;47.37;;;1.10;99.90;;;;;;5048188;28;20256;-84
2023/12/06 12:22:02;;;;;;;123.63;50.63;;;1.10;99.90;;;;;;5034118;28;20223;-84
2023/12/06 12:24:31;;;;;;;116.77;50.93;;;1.10;99.90;;;;;;5028548;28;20582;-84
2023/12/06 12:26:57;;;;;;;150.07;52.13;;;1.20;99.90;;;;;;5035823;28;20225;-85
2023/12/06 12:29:25;;;;;;;118.77;49.10;;;1.10;99.90;;;;;;5046661;28;20319;-87
2023/12/06 12:31:53;;;;;;;123.80;51.47;;;1.10;99.90;;;;;;5030370;28;20224;-84